createdAt,value
2023-04-22T00:00:38.348Z,2.00
2023-04-22T00:03:05.582Z,2.00
2023-04-22T00:05:32.882Z,2.00
2023-04-22T00:08:00.164Z,2.00
2023-04-22T00:10:27.814Z,1.90
2023-04-22T00:12:54.896Z,1.80
2023-04-22T00:15:22.362Z,1.80
2023-04-22T00:17:49.781Z,1.90
2023-04-22T00:20:17.952Z,1.90
2023-04-22T00:22:45.115Z,1.80
2023-04-22T00:25:15.884Z,1.80
2023-04-22T00:27:43.311Z,1.90
2023-04-22T00:30:11.136Z,1.90
2023-04-22T00:32:38.578Z,1.80
2023-04-22T00:35:06.215Z,1.80
2023-04-22T00:37:33.484Z,1.80
2023-04-22T00:40:00.739Z,1.70
2023-04-22T00:42:28.308Z,1.70
2023-04-22T00:44:55.876Z,1.60
2023-04-22T00:47:26.958Z,1.60
2023-04-22T00:49:55.021Z,1.60
2023-04-22T00:52:22.473Z,1.50
2023-04-22T00:54:49.820Z,1.50
2023-04-22T00:57:18.533Z,1.50
2023-04-22T00:59:48.954Z,1.50
2023-04-22T01:02:16.240Z,1.40
2023-04-22T01:04:43.635Z,1.40
2023-04-22T01:07:10.829Z,1.30
2023-04-22T01:09:40.250Z,1.30
2023-04-22T01:12:08.096Z,1.20
2023-04-22T01:14:35.544Z,1.20
2023-04-22T01:17:03.418Z,1.20
2023-04-22T01:19:30.980Z,1.10
2023-04-22T01:21:59.514Z,1.10
2023-04-22T01:24:27.149Z,1.20
2023-04-22T01:26:54.489Z,1.20
2023-04-22T01:29:21.911Z,1.10
2023-04-22T01:31:49.292Z,1.20
2023-04-22T01:34:16.601Z,1.10
2023-04-22T01:36:44.903Z,1.10
2023-04-22T01:39:12.174Z,1.10
2023-04-22T01:41:39.486Z,1.10
2023-04-22T01:44:06.761Z,1.00
2023-04-22T01:46:34.437Z,1.00
2023-04-22T01:49:01.960Z,1.00
2023-04-22T01:51:29.154Z,1.00
2023-04-22T01:53:56.425Z,1.00
2023-04-22T01:56:23.498Z,1.00
2023-04-22T01:58:50.785Z,1.00
2023-04-22T02:01:20.867Z,1.00
2023-04-22T02:03:48.075Z,1.00
2023-04-22T02:06:15.283Z,0.90
2023-04-22T02:08:42.482Z,0.90
2023-04-22T02:11:10.118Z,0.90
2023-04-22T02:13:38.877Z,0.90
2023-04-22T02:16:06.615Z,0.90
2023-04-22T02:18:34.019Z,0.90
2023-04-22T02:21:01.245Z,0.90
2023-04-22T02:23:29.061Z,0.90
2023-04-22T02:25:57.102Z,0.80
2023-04-22T02:28:24.250Z,0.80
2023-04-22T02:30:51.313Z,0.70
2023-04-22T02:33:18.606Z,0.80
2023-04-22T02:35:45.917Z,0.70
2023-04-22T02:38:12.997Z,0.70
2023-04-22T02:40:40.161Z,0.80
2023-04-22T02:43:07.677Z,0.80
2023-04-22T02:45:34.836Z,0.70
2023-04-22T02:48:01.988Z,0.60
2023-04-22T02:50:29.155Z,0.60
2023-04-22T02:52:56.324Z,0.60
2023-04-22T02:55:24.968Z,0.60
2023-04-22T02:57:52.305Z,0.60
2023-04-22T03:00:19.464Z,0.60
2023-04-22T03:02:46.740Z,0.50
2023-04-22T03:05:14.688Z,0.60
2023-04-22T03:07:42.017Z,0.70
2023-04-22T03:10:09.578Z,0.60
2023-04-22T03:12:36.752Z,0.70
2023-04-22T03:15:04.513Z,0.60
2023-04-22T03:17:31.921Z,0.60
2023-04-22T03:19:59.068Z,0.70
2023-04-22T03:22:26.271Z,0.70
2023-04-22T03:24:53.338Z,0.70
2023-04-22T03:27:20.449Z,0.70
2023-04-22T03:29:48.839Z,0.60
2023-04-22T03:32:16.093Z,0.60
2023-04-22T03:34:43.256Z,0.60
2023-04-22T03:37:10.549Z,0.60
2023-04-22T03:39:38.129Z,0.60
2023-04-22T03:42:05.725Z,0.70
2023-04-22T03:44:32.910Z,0.70
2023-04-22T03:47:00.164Z,0.70
2023-04-22T03:49:27.718Z,0.80
2023-04-22T03:51:54.856Z,0.90
2023-04-22T03:54:21.935Z,1.00
2023-04-22T03:56:48.996Z,1.00
2023-04-22T03:59:16.140Z,1.10
2023-04-22T04:01:43.635Z,1.30
2023-04-22T04:04:11.019Z,1.40
2023-04-22T04:06:38.497Z,1.40
2023-04-22T04:09:06.018Z,1.50
2023-04-22T04:11:33.192Z,1.50
2023-04-22T04:14:00.286Z,1.50
2023-04-22T04:16:27.395Z,1.50
2023-04-22T04:18:54.577Z,1.60
2023-04-22T04:21:21.716Z,1.70
2023-04-22T04:23:49.977Z,1.70
2023-04-22T04:26:18.193Z,1.80
2023-04-22T04:28:45.265Z,2.00
2023-04-22T04:31:12.466Z,2.00
2023-04-22T04:33:39.651Z,2.00
2023-04-22T04:36:08.863Z,2.20
2023-04-22T04:38:35.966Z,2.30
2023-04-22T04:41:04.130Z,2.40
2023-04-22T04:43:32.155Z,2.40
2023-04-22T04:45:59.583Z,2.50
2023-04-22T04:48:27.210Z,2.60
2023-04-22T04:50:54.501Z,2.70
2023-04-22T04:53:24.452Z,2.70
2023-04-22T04:55:51.647Z,2.90
2023-04-22T04:58:18.756Z,3.30
2023-04-22T05:00:45.877Z,3.70
2023-04-22T05:03:13.155Z,4.20
2023-04-22T05:05:40.694Z,4.80
2023-04-22T05:08:08.050Z,5.20
2023-04-22T05:10:35.218Z,5.50
2023-04-22T05:13:04.127Z,7.00
2023-04-22T05:15:31.678Z,9.40
2023-04-22T05:17:58.815Z,12.20
2023-04-22T05:20:26.272Z,15.00
2023-04-22T05:22:53.349Z,17.40
2023-04-22T05:25:20.560Z,19.20
2023-04-22T05:27:47.607Z,20.80
2023-04-22T05:30:14.998Z,21.80
2023-04-22T05:32:42.179Z,21.40
2023-04-22T05:35:10.277Z,20.40
2023-04-22T05:37:37.490Z,20.40
2023-04-22T05:40:05.010Z,21.50
2023-04-22T05:42:32.143Z,21.50
2023-04-22T05:44:59.188Z,19.90
2023-04-22T05:47:26.519Z,18.00
2023-04-22T05:49:53.656Z,15.90
2023-04-22T05:52:20.929Z,15.30
2023-04-22T05:54:48.028Z,17.40
2023-04-22T05:57:15.366Z,20.10
2023-04-22T05:59:42.968Z,22.30
2023-04-22T06:02:10.441Z,24.30
2023-04-22T06:04:38.219Z,25.40
2023-04-22T06:07:05.666Z,26.90
2023-04-22T06:09:32.781Z,27.70
2023-04-22T06:11:59.995Z,28.70
2023-04-22T06:14:27.266Z,29.30
2023-04-22T06:16:54.472Z,30.10
2023-04-22T06:19:21.730Z,30.40
2023-04-22T06:21:48.890Z,31.10
2023-04-22T06:24:16.079Z,31.30
2023-04-22T06:26:45.735Z,31.10
2023-04-22T06:29:12.864Z,30.90
2023-04-22T06:31:40.065Z,31.00
2023-04-22T06:34:07.377Z,31.40
2023-04-22T06:36:37.784Z,31.10
2023-04-22T06:39:05.908Z,30.60
2023-04-22T06:41:33.358Z,28.60
2023-04-22T06:44:00.510Z,27.40
2023-04-22T06:46:27.751Z,26.50
2023-04-22T06:48:54.876Z,25.70
2023-04-22T06:51:22.032Z,25.60
2023-04-22T06:53:49.130Z,27.20
2023-04-22T06:56:16.385Z,29.40
2023-04-22T06:58:43.454Z,29.40
2023-04-22T07:01:10.567Z,30.30
2023-04-22T07:03:37.837Z,32.00
2023-04-22T07:06:05.599Z,32.00
2023-04-22T07:08:32.824Z,33.00
2023-04-22T07:10:59.923Z,32.90
2023-04-22T07:13:27.363Z,34.00
2023-04-22T07:15:54.654Z,34.40
2023-04-22T07:18:21.825Z,34.10
2023-04-22T07:20:48.969Z,34.80
2023-04-22T07:23:16.202Z,34.90
2023-04-22T07:25:43.410Z,35.20
2023-04-22T07:28:10.574Z,34.80
2023-04-22T07:30:40.640Z,34.70
2023-04-22T07:33:08.034Z,34.00
2023-04-22T07:35:35.537Z,35.40
2023-04-22T07:38:02.934Z,36.50
2023-04-22T07:40:30.613Z,36.80
2023-04-22T07:42:57.897Z,36.90
2023-04-22T07:45:25.418Z,36.30
2023-04-22T07:47:52.588Z,36.70
2023-04-22T07:50:19.712Z,33.70
2023-04-22T07:52:46.821Z,34.60
2023-04-22T07:55:13.964Z,33.80
2023-04-22T07:57:41.068Z,33.50
2023-04-22T08:00:09.585Z,35.90
2023-04-22T08:02:47.120Z,36.00
2023-04-22T08:05:14.360Z,36.30
2023-04-22T08:07:42.164Z,36.30
2023-04-22T08:10:09.813Z,36.70
2023-04-22T08:12:37.419Z,38.00
2023-04-22T08:15:04.967Z,36.10
2023-04-22T08:17:32.353Z,33.10
2023-04-22T08:19:59.558Z,33.70
2023-04-22T08:22:27.674Z,33.70
2023-04-22T08:24:55.024Z,34.10
2023-04-22T08:27:23.009Z,35.50
2023-04-22T08:29:50.141Z,35.20
2023-04-22T08:32:19.736Z,33.70
2023-04-22T08:34:51.830Z,34.30
2023-04-22T08:37:21.271Z,35.70
2023-04-22T08:39:48.364Z,35.10
2023-04-22T08:42:16.539Z,35.10
2023-04-22T08:44:44.996Z,34.90
2023-04-22T08:47:15.058Z,35.50
2023-04-22T08:49:44.076Z,33.80
2023-04-22T08:52:12.920Z,32.40
2023-04-22T08:54:40.021Z,31.00
2023-04-22T08:57:08.824Z,29.30
2023-04-22T08:59:36.963Z,28.90
2023-04-22T09:02:06.712Z,28.20
2023-04-22T09:04:34.565Z,27.50
2023-04-22T09:07:02.378Z,26.20
2023-04-22T09:09:32.137Z,25.20
2023-04-22T09:11:59.320Z,25.20
2023-04-22T09:14:26.811Z,25.20
2023-04-22T09:16:53.933Z,24.50
2023-04-22T09:19:24.559Z,24.30
2023-04-22T09:21:54.275Z,24.50
2023-04-22T09:24:21.880Z,23.80
2023-04-22T09:26:49.522Z,24.00
2023-04-22T09:29:19.756Z,23.20
2023-04-22T09:31:50.781Z,23.40
2023-04-22T09:34:18.029Z,22.80
2023-04-22T09:36:46.934Z,22.60
2023-04-22T09:39:14.617Z,22.40
2023-04-22T09:41:41.808Z,22.40
2023-04-22T09:44:16.990Z,22.40
2023-04-22T09:46:45.096Z,22.70
2023-04-22T09:49:12.391Z,22.70
2023-04-22T09:51:42.683Z,22.80
2023-04-22T09:54:11.752Z,22.80
2023-04-22T09:56:59.321Z,22.50
2023-04-22T09:59:28.748Z,22.60
2023-04-22T10:02:04.000Z,22.60
2023-04-22T10:04:31.443Z,22.70
2023-04-22T10:06:59.793Z,22.10
2023-04-22T10:09:26.960Z,22.30
2023-04-22T10:11:55.964Z,22.10
2023-04-22T10:14:23.395Z,22.20
2023-04-22T10:16:56.699Z,21.90
2023-04-22T10:19:25.203Z,21.90
2023-04-22T10:21:58.655Z,21.90
2023-04-22T10:24:27.651Z,21.60
2023-04-22T10:27:00.018Z,21.90
2023-04-22T10:29:35.062Z,21.60
2023-04-22T10:32:23.304Z,21.90
2023-04-22T10:35:06.969Z,22.10
2023-04-22T10:37:34.539Z,22.10
2023-04-22T10:40:09.360Z,22.20
2023-04-22T10:42:46.537Z,22.20
2023-04-22T10:45:15.113Z,22.00
2023-04-22T10:47:42.805Z,21.70
2023-04-22T10:50:15.305Z,21.60
2023-04-22T10:52:44.057Z,21.70
2023-04-22T10:55:11.339Z,21.60
2023-04-22T10:57:41.674Z,21.80
2023-04-22T11:00:38.596Z,21.60
2023-04-22T11:03:18.180Z,21.90
2023-04-22T11:05:45.950Z,21.60
2023-04-22T11:08:14.411Z,21.70
2023-04-22T11:10:46.896Z,22.10
2023-04-22T11:13:17.130Z,22.10
2023-04-22T11:15:47.207Z,22.00
2023-04-22T11:18:18.723Z,22.30
2023-04-22T11:20:48.491Z,22.10
2023-04-22T11:23:24.579Z,21.80
2023-04-22T11:26:06.120Z,21.50
2023-04-22T11:28:33.337Z,21.60
2023-04-22T11:31:09.997Z,21.60
2023-04-22T11:33:39.239Z,22.00
2023-04-22T11:36:10.926Z,22.00
2023-04-22T11:38:38.299Z,22.00
2023-04-22T11:41:05.586Z,21.80
2023-04-22T11:43:32.880Z,21.60
2023-04-22T11:46:00.091Z,21.50
2023-04-22T11:48:27.545Z,21.40
2023-04-22T11:51:10.470Z,21.50
2023-04-22T11:53:39.644Z,21.70
2023-04-22T11:56:07.001Z,21.80
2023-04-22T11:58:34.141Z,21.90
2023-04-22T12:01:01.350Z,21.90
2023-04-22T12:03:30.187Z,21.70
2023-04-22T12:06:04.885Z,21.40
2023-04-22T12:08:32.998Z,21.40
2023-04-22T12:11:02.626Z,21.30
2023-04-22T12:13:41.721Z,21.30
2023-04-22T12:16:15.722Z,21.20
2023-04-22T12:18:52.885Z,21.10
2023-04-22T12:21:22.271Z,21.40
2023-04-22T12:23:59.177Z,21.70
2023-04-22T12:26:27.867Z,21.60
2023-04-22T12:28:58.137Z,21.30
2023-04-22T12:31:26.564Z,21.40
2023-04-22T12:33:54.190Z,21.50
2023-04-22T12:36:21.942Z,21.50
2023-04-22T12:38:49.453Z,21.50
2023-04-22T12:41:16.700Z,21.40
2023-04-22T12:43:43.836Z,21.20
2023-04-22T12:46:11.093Z,21.10
2023-04-22T12:48:38.278Z,21.00
2023-04-22T12:51:06.746Z,21.00
2023-04-22T12:53:34.796Z,21.20
2023-04-22T12:56:02.054Z,21.30
2023-04-22T12:58:29.202Z,21.10
2023-04-22T13:00:56.293Z,21.00
2023-04-22T13:03:23.444Z,21.00
2023-04-22T13:05:51.020Z,20.80
2023-04-22T13:08:18.233Z,20.80
2023-04-22T13:10:45.375Z,20.70
2023-04-22T13:15:42.883Z,20.50
2023-04-22T13:18:10.049Z,20.70
2023-04-22T13:20:37.239Z,21.00
2023-04-22T13:23:05.137Z,20.70
2023-04-22T13:25:32.446Z,20.60
2023-04-22T13:27:59.602Z,20.70
2023-04-22T13:30:26.842Z,20.50
2023-04-22T13:32:57.140Z,20.70
2023-04-22T13:35:24.471Z,20.80
2023-04-22T13:37:51.630Z,20.80
2023-04-22T13:40:19.025Z,20.70
2023-04-22T13:42:46.234Z,20.60
2023-04-22T13:45:13.414Z,20.40
2023-04-22T13:47:40.459Z,20.50
2023-04-22T13:50:09.542Z,20.50
2023-04-22T13:52:36.870Z,20.50
2023-04-22T13:55:04.422Z,20.60
2023-04-22T13:57:31.790Z,20.40
2023-04-22T13:59:58.999Z,20.60
2023-04-22T14:02:26.593Z,20.50
2023-04-22T14:04:53.806Z,20.40
2023-04-22T14:07:21.610Z,20.50
2023-04-22T14:09:48.658Z,20.40
2023-04-22T14:12:15.789Z,20.40
2023-04-22T14:14:42.950Z,20.30
2023-04-22T14:17:10.106Z,20.30
2023-04-22T14:19:39.493Z,20.40
2023-04-22T14:22:06.825Z,20.40
2023-04-22T14:24:34.055Z,20.40
2023-04-22T14:27:03.890Z,20.40
2023-04-22T14:29:32.038Z,20.40
2023-04-22T14:31:59.621Z,20.20
2023-04-22T14:34:29.503Z,20.40
2023-04-22T14:36:56.629Z,20.30
2023-04-22T14:39:23.745Z,20.20
2023-04-22T14:41:51.578Z,20.10
2023-04-22T14:44:18.938Z,20.00
2023-04-22T14:46:46.118Z,20.20
2023-04-22T14:49:13.172Z,19.90
2023-04-22T14:51:40.359Z,20.00
2023-04-22T14:54:07.411Z,20.00
2023-04-22T14:56:34.530Z,20.00
2023-04-22T14:59:01.784Z,20.00
2023-04-22T15:01:29.048Z,20.20
2023-04-22T15:03:59.296Z,19.80
2023-04-22T15:06:27.670Z,19.80
2023-04-22T15:08:55.983Z,19.70
2023-04-22T15:11:23.475Z,19.90
2023-04-22T15:13:50.742Z,19.90
2023-04-22T15:16:21.264Z,20.00
2023-04-22T15:18:48.574Z,19.80
2023-04-22T15:21:15.869Z,19.80
2023-04-22T15:23:42.984Z,19.80
2023-04-22T15:26:12.943Z,19.80
2023-04-22T15:28:40.109Z,19.70
2023-04-22T15:31:07.241Z,19.60
2023-04-22T15:33:34.863Z,19.50
2023-04-22T15:36:04.203Z,19.60
2023-04-22T15:38:31.417Z,19.50
2023-04-22T15:40:58.523Z,19.50
2023-04-22T15:43:25.618Z,19.50
2023-04-22T15:45:53.057Z,19.60
2023-04-22T15:48:20.794Z,19.40
2023-04-22T15:50:47.926Z,19.40
2023-04-22T15:53:15.153Z,19.20
2023-04-22T15:55:42.262Z,19.20
2023-04-22T15:58:09.767Z,19.10
2023-04-22T16:00:37.293Z,19.20
2023-04-22T16:03:04.681Z,19.00
2023-04-22T16:05:32.200Z,18.80
2023-04-22T16:07:59.400Z,18.70
2023-04-22T16:10:28.032Z,18.70
2023-04-22T16:12:55.114Z,18.50
2023-04-22T16:15:23.796Z,18.50
2023-04-22T16:17:51.314Z,18.30
2023-04-22T16:20:19.134Z,18.30
2023-04-22T16:22:46.247Z,18.20
2023-04-22T16:25:13.454Z,18.20
2023-04-22T16:27:40.800Z,18.10
2023-04-22T16:30:08.488Z,18.10
2023-04-22T16:32:37.917Z,18.00
2023-04-22T16:35:05.647Z,17.90
2023-04-22T16:37:34.170Z,17.80
2023-04-22T16:40:03.001Z,17.80
2023-04-22T16:42:31.427Z,17.70
2023-04-22T16:44:59.512Z,17.60
2023-04-22T16:47:27.139Z,17.50
2023-04-22T16:49:54.287Z,17.30
2023-04-22T16:52:21.494Z,17.20
2023-04-22T16:54:48.671Z,17.20
2023-04-22T16:57:16.170Z,17.20
2023-04-22T16:59:44.058Z,17.00
2023-04-22T17:02:11.598Z,16.90
2023-04-22T17:04:38.853Z,16.80
2023-04-22T17:07:06.031Z,16.80
2023-04-22T17:09:33.230Z,16.60
2023-04-22T17:12:01.687Z,16.60
2023-04-22T17:14:28.886Z,16.40
2023-04-22T17:16:56.028Z,16.40
2023-04-22T17:19:23.144Z,16.30
2023-04-22T17:21:50.466Z,16.30
2023-04-22T17:24:17.517Z,16.20
2023-04-22T17:26:44.647Z,16.10
2023-04-22T17:29:11.866Z,15.90
2023-04-22T17:31:39.540Z,15.80
2023-04-22T17:34:06.651Z,15.80
2023-04-22T17:36:33.785Z,15.60
2023-04-22T17:39:00.847Z,15.40
2023-04-22T17:41:27.893Z,15.30
2023-04-22T17:44:02.915Z,15.20
2023-04-22T17:46:30.116Z,15.20
2023-04-22T17:48:57.292Z,14.90
2023-04-22T17:51:24.397Z,14.80
2023-04-22T17:53:53.223Z,14.70
2023-04-22T17:56:20.341Z,14.60
2023-04-22T17:58:47.490Z,14.50
2023-04-22T18:01:14.660Z,14.40
2023-04-22T18:03:42.132Z,14.20
2023-04-22T18:06:09.714Z,14.10
2023-04-22T18:08:36.925Z,13.90
2023-04-22T18:11:05.228Z,13.80
2023-04-22T18:13:33.164Z,13.70
2023-04-22T18:16:00.407Z,13.60
2023-04-22T18:18:28.266Z,13.50
2023-04-22T18:20:55.419Z,13.30
2023-04-22T18:23:22.735Z,13.10
2023-04-22T18:25:50.169Z,13.10
2023-04-22T18:28:17.470Z,13.00
2023-04-22T18:30:44.851Z,12.90
2023-04-22T18:33:12.018Z,12.80
2023-04-22T18:35:39.155Z,12.80
2023-04-22T18:38:06.311Z,12.60
2023-04-22T18:40:34.384Z,12.40
2023-04-22T18:43:01.863Z,12.20
2023-04-22T18:45:29.017Z,12.10
2023-04-22T18:47:57.034Z,11.90
2023-04-22T18:50:24.158Z,11.80
2023-04-22T18:52:51.410Z,11.70
2023-04-22T18:55:18.653Z,11.70
2023-04-22T18:57:46.000Z,11.60
2023-04-22T19:00:13.750Z,11.50
2023-04-22T19:02:42.286Z,11.40
2023-04-22T19:05:10.203Z,11.20
2023-04-22T19:07:41.948Z,11.10
2023-04-22T19:10:10.883Z,11.00
2023-04-22T19:12:38.004Z,10.80
2023-04-22T19:15:05.778Z,10.80
2023-04-22T19:17:33.725Z,10.60
2023-04-22T19:20:01.194Z,10.60
2023-04-22T19:22:31.038Z,10.50
2023-04-22T19:24:58.833Z,10.30
2023-04-22T19:27:26.959Z,10.30
2023-04-22T19:29:55.229Z,10.20
2023-04-22T19:32:23.675Z,10.10
2023-04-22T19:34:52.098Z,10.00
2023-04-22T19:37:21.356Z,9.90
2023-04-22T19:39:48.987Z,9.80
2023-04-22T19:42:16.399Z,9.80
2023-04-22T19:44:47.944Z,9.70
2023-04-22T19:47:16.946Z,9.60
2023-04-22T19:49:45.488Z,9.60
2023-04-22T19:52:16.110Z,9.50
2023-04-22T19:54:49.482Z,9.50
2023-04-22T19:57:16.965Z,9.50
2023-04-22T19:59:45.056Z,9.40
2023-04-22T20:02:12.417Z,9.40
2023-04-22T20:04:40.770Z,9.30
2023-04-22T20:07:08.940Z,9.20
2023-04-22T20:09:41.398Z,9.20
2023-04-22T20:12:08.936Z,9.10
2023-04-22T20:14:36.221Z,9.00
2023-04-22T20:17:03.548Z,9.00
2023-04-22T20:19:31.595Z,8.80
2023-04-22T20:22:01.965Z,8.80
2023-04-22T20:24:34.452Z,8.70
2023-04-22T20:27:02.595Z,8.60
2023-04-22T20:29:31.304Z,8.60
2023-04-22T20:31:59.696Z,8.60
2023-04-22T20:34:27.357Z,8.50
2023-04-22T20:36:55.714Z,8.40
2023-04-22T20:39:24.198Z,8.30
2023-04-22T20:41:54.601Z,8.20
2023-04-22T20:44:21.929Z,8.10
2023-04-22T20:46:49.761Z,8.10
2023-04-22T20:49:17.774Z,8.00
2023-04-22T20:51:45.192Z,7.90
2023-04-22T20:54:25.850Z,7.90
2023-04-22T20:56:55.913Z,7.80
2023-04-22T20:59:24.944Z,7.70
2023-04-22T21:01:55.401Z,7.60
2023-04-22T21:04:27.208Z,7.50
2023-04-22T21:06:55.696Z,7.50
2023-04-22T21:09:26.387Z,7.30
2023-04-22T21:11:54.772Z,7.30
2023-04-22T21:14:24.340Z,7.20
2023-04-22T21:17:03.181Z,7.20
2023-04-22T21:19:34.475Z,7.10
2023-04-22T21:22:06.319Z,7.10
2023-04-22T21:24:35.204Z,7.00
2023-04-22T21:27:03.754Z,6.90
2023-04-22T21:29:31.203Z,6.90
2023-04-22T21:32:08.045Z,6.90
2023-04-22T21:34:37.135Z,6.90
2023-04-22T21:37:05.514Z,6.80
2023-04-22T21:39:33.147Z,6.80
2023-04-22T21:42:02.554Z,6.80
2023-04-22T21:44:29.674Z,6.70
2023-04-22T21:46:56.761Z,6.60
2023-04-22T21:49:23.843Z,6.60
2023-04-22T21:51:50.965Z,6.60
2023-04-22T21:54:18.392Z,6.50
2023-04-22T21:56:45.668Z,6.50
2023-04-22T21:59:12.754Z,6.50
2023-04-22T22:01:39.870Z,6.50
2023-04-22T22:04:07.393Z,6.40
2023-04-22T22:06:34.659Z,6.40
2023-04-22T22:09:01.791Z,6.30
2023-04-22T22:11:31.377Z,6.30
2023-04-22T22:14:01.756Z,6.30
2023-04-22T22:16:29.146Z,6.20
2023-04-22T22:18:57.926Z,6.30
2023-04-22T22:21:25.294Z,6.30
2023-04-22T22:23:52.489Z,6.30
2023-04-22T22:26:19.874Z,6.30
2023-04-22T22:28:47.342Z,6.20
2023-04-22T22:31:14.820Z,6.20
2023-04-22T22:33:42.823Z,6.20
2023-04-22T22:36:09.937Z,6.20
2023-04-22T22:38:37.412Z,6.20
2023-04-22T22:41:04.471Z,6.20
2023-04-22T22:43:31.828Z,6.20
2023-04-22T22:45:59.082Z,6.20
2023-04-22T22:48:26.315Z,6.20
2023-04-22T22:50:53.505Z,6.20
2023-04-22T22:53:21.595Z,6.20
2023-04-22T22:55:48.670Z,6.10
2023-04-22T22:58:18.516Z,6.10
2023-04-22T23:00:45.829Z,6.00
2023-04-22T23:03:13.292Z,5.90
2023-04-22T23:05:40.716Z,5.80
2023-04-22T23:08:08.013Z,5.80
2023-04-22T23:10:35.109Z,5.80
2023-04-22T23:13:02.798Z,5.70
2023-04-22T23:15:30.052Z,5.70
2023-04-22T23:17:57.272Z,5.70
2023-04-22T23:20:24.846Z,5.70
2023-04-22T23:22:56.084Z,5.60
2023-04-22T23:25:23.612Z,5.60
2023-04-22T23:27:51.388Z,5.60
2023-04-22T23:30:18.910Z,5.50
2023-04-22T23:32:51.200Z,5.50
2023-04-22T23:35:20.504Z,5.40
2023-04-22T23:37:50.879Z,5.40
2023-04-22T23:40:18.097Z,5.30
2023-04-22T23:42:48.458Z,5.30
2023-04-22T23:45:15.813Z,5.30
2023-04-22T23:47:42.977Z,5.30
2023-04-22T23:50:10.836Z,5.30
2023-04-22T23:52:41.436Z,5.30
2023-04-22T23:55:10.938Z,5.20
2023-04-22T23:57:38.819Z,5.20
